sensor_id;sensor_type;location;lat;lon;timestamp;pressure;altitude;pressure_sealevel;temperature
74485;BMP280;62942;52.462;10.846;2023-02-28T00:00:22;102320;;;
74485;BMP280;62942;52.462;10.846;2023-02-28T00:01:32;102330;;;
74485;BMP280;62942;52.462;10.846;2023-02-28T00:02:32;102310;;;
74485;BMP280;62942;52.462;10.846;2023-02-28T00:03:32;102320;;;
74485;BMP280;62942;52.462;10.846;2023-02-28T00:04:42;102320;;;
74485;BMP280;62942;52.462;10.846;2023-02-28T00:05:42;102330;;;
74485;BMP280;62942;52.462;10.846;2023-02-28T00:06:52;102330;;;
74485;BMP280;62942;52.462;10.846;2023-02-28T00:07:52;102330;;;
74485;BMP280;62942;52.462;10.846;2023-02-28T00:09:02;102340;;;
74485;BMP280;62942;52.462;10.846;2023-02-28T00:10:02;102340;;;
74485;BMP280;62942;52.462;10.846;2023-02-28T00:11:13;102340;;;
74485;BMP280;62942;52.462;10.846;2023-02-28T00:12:12;102330;;;
74485;BMP280;62942;52.462;10.846;2023-02-28T00:13:12;102330;;;
74485;BMP280;62942;52.462;10.846;2023-02-28T00:14:22;102320;;;
74485;BMP280;62942;52.462;10.846;2023-02-28T00:15:22;102320;;;
74485;BMP280;62942;52.462;10.846;2023-02-28T00:16:32;102310;;;
74485;BMP280;62942;52.462;10.846;2023-02-28T00:17:42;102310;;;
74485;BMP280;62942;52.462;10.846;2023-02-28T00:18:52;102320;;;
74485;BMP280;62942;52.462;10.846;2023-02-28T00:20:02;102320;;;
74485;BMP280;62942;52.462;10.846;2023-02-28T00:21:12;102320;;;
74485;BMP280;62942;52.462;10.846;2023-02-28T00:22:12;102320;;;
74485;BMP280;62942;52.462;10.846;2023-02-28T00:23:12;102320;;;
74485;BMP280;62942;52.462;10.846;2023-02-28T00:24:22;102320;;;
74485;BMP280;62942;52.462;10.846;2023-02-28T00:25:23;102310;;;
74485;BMP280;62942;52.462;10.846;2023-02-28T00:26:22;102320;;;
74485;BMP280;62942;52.462;10.846;2023-02-28T00:27:32;102320;;;
74485;BMP280;62942;52.462;10.846;2023-02-28T00:28:32;102330;;;
74485;BMP280;62942;52.462;10.846;2023-02-28T00:29:42;102330;;;
74485;BMP280;62942;52.462;10.846;2023-02-28T00:30:42;102330;;;
74485;BMP280;62942;52.462;10.846;2023-02-28T00:31:52;102330;;;
74485;BMP280;62942;52.462;10.846;2023-02-28T00:32:52;102330;;;
74485;BMP280;62942;52.462;10.846;2023-02-28T00:33:52;102330;;;
74485;BMP280;62942;52.462;10.846;2023-02-28T00:34:52;102330;;;
74485;BMP280;62942;52.462;10.846;2023-02-28T00:35:52;102330;;;
74485;BMP280;62942;52.462;10.846;2023-02-28T00:37:02;102330;;;
74485;BMP280;62942;52.462;10.846;2023-02-28T00:38:12;102330;;;
74485;BMP280;62942;52.462;10.846;2023-02-28T00:39:22;102320;;;
74485;BMP280;62942;52.462;10.846;2023-02-28T00:40:32;102330;;;
74485;BMP280;62942;52.462;10.846;2023-02-28T00:41:42;102320;;;
74485;BMP280;62942;52.462;10.846;2023-02-28T00:42:52;102330;;;
74485;BMP280;62942;52.462;10.846;2023-02-28T00:44:02;102320;;;
74485;BMP280;62942;52.462;10.846;2023-02-28T00:45:12;102330;;;
74485;BMP280;62942;52.462;10.846;2023-02-28T00:46:22;102320;;;
74485;BMP280;62942;52.462;10.846;2023-02-28T00:47:22;102330;;;
74485;BMP280;62942;52.462;10.846;2023-02-28T00:48:22;102330;;;
74485;BMP280;62942;52.462;10.846;2023-02-28T00:49:32;102330;;;
74485;BMP280;62942;52.462;10.846;2023-02-28T00:50:32;102330;;;
74485;BMP280;62942;52.462;10.846;2023-02-28T00:51:42;102340;;;
74485;BMP280;62942;52.462;10.846;2023-02-28T00:52:42;102330;;;
74485;BMP280;62942;52.462;10.846;2023-02-28T00:53:52;102330;;;
74485;BMP280;62942;52.462;10.846;2023-02-28T00:54:52;102340;;;
74485;BMP280;62942;52.462;10.846;2023-02-28T00:56:02;102330;;;
74485;BMP280;62942;52.462;10.846;2023-02-28T00:57:12;102330;;;
74485;BMP280;62942;52.462;10.846;2023-02-28T00:58:22;102330;;;
74485;BMP280;62942;52.462;10.846;2023-02-28T00:59:22;102340;;;
74485;BMP280;62942;52.462;10.846;2023-02-28T01:00:22;102340;;;
74485;BMP280;62942;52.462;10.846;2023-02-28T01:01:32;102330;;;
74485;BMP280;62942;52.462;10.846;2023-02-28T01:02:42;102330;;;
74485;BMP280;62942;52.462;10.846;2023-02-28T01:03:52;102340;;;
74485;BMP280;62942;52.462;10.846;2023-02-28T01:04:52;102340;;;
74485;BMP280;62942;52.462;10.846;2023-02-28T01:06:02;102340;;;
74485;BMP280;62942;52.462;10.846;2023-02-28T01:07:02;102330;;;
74485;BMP280;62942;52.462;10.846;2023-02-28T01:08:12;102330;;;
74485;BMP280;62942;52.462;10.846;2023-02-28T01:09:22;102330;;;
74485;BMP280;62942;52.462;10.846;2023-02-28T01:10:32;102330;;;
74485;BMP280;62942;52.462;10.846;2023-02-28T01:11:32;102330;;;
74485;BMP280;62942;52.462;10.846;2023-02-28T01:12:42;102330;;;
74485;BMP280;62942;52.462;10.846;2023-02-28T01:13:42;102330;;;
74485;BMP280;62942;52.462;10.846;2023-02-28T01:14:52;102330;;;
74485;BMP280;62942;52.462;10.846;2023-02-28T01:15:52;102320;;;
74485;BMP280;62942;52.462;10.846;2023-02-28T01:17:02;102320;;;
74485;BMP280;62942;52.462;10.846;2023-02-28T01:18:02;102320;;;
74485;BMP280;62942;52.462;10.846;2023-02-28T01:19:12;102310;;;
74485;BMP280;62942;52.462;10.846;2023-02-28T01:20:12;102310;;;
74485;BMP280;62942;52.462;10.846;2023-02-28T01:21:22;102310;;;
74485;BMP280;62942;52.462;10.846;2023-02-28T01:22:22;102310;;;
74485;BMP280;62942;52.462;10.846;2023-02-28T01:23:32;102310;;;
74485;BMP280;62942;52.462;10.846;2023-02-28T01:24:32;102310;;;
74485;BMP280;62942;52.462;10.846;2023-02-28T01:25:42;102310;;;
74485;BMP280;62942;52.462;10.846;2023-02-28T01:26:42;102310;;;
74485;BMP280;62942;52.462;10.846;2023-02-28T01:27:52;102300;;;
74485;BMP280;62942;52.462;10.846;2023-02-28T01:28:52;102310;;;
74485;BMP280;62942;52.462;10.846;2023-02-28T01:30:02;102310;;;
74485;BMP280;62942;52.462;10.846;2023-02-28T01:31:02;102310;;;
74485;BMP280;62942;52.462;10.846;2023-02-28T01:32:12;102310;;;
74485;BMP280;62942;52.462;10.846;2023-02-28T01:33:22;102310;;;
74485;BMP280;62942;52.462;10.846;2023-02-28T01:34:22;102310;;;
74485;BMP280;62942;52.462;10.846;2023-02-28T01:35:22;102310;;;
74485;BMP280;62942;52.462;10.846;2023-02-28T01:36:32;102310;;;
74485;BMP280;62942;52.462;10.846;2023-02-28T01:37:32;102310;;;
74485;BMP280;62942;52.462;10.846;2023-02-28T01:38:42;102300;;;
74485;BMP280;62942;52.462;10.846;2023-02-28T01:39:42;102300;;;
74485;BMP280;62942;52.462;10.846;2023-02-28T01:40:52;102300;;;
74485;BMP280;62942;52.462;10.846;2023-02-28T01:42:02;102300;;;
74485;BMP280;62942;52.462;10.846;2023-02-28T01:43:16;102310;;;
74485;BMP280;62942;52.462;10.846;2023-02-28T01:45:22;102320;;;
74485;BMP280;62942;52.462;10.846;2023-02-28T01:46:22;102330;;;
74485;BMP280;62942;52.462;10.846;2023-02-28T01:47:32;102320;;;
74485;BMP280;62942;52.462;10.846;2023-02-28T01:48:42;102330;;;
74485;BMP280;62942;52.462;10.846;2023-02-28T01:49:52;102330;;;
74485;BMP280;62942;52.462;10.846;2023-02-28T01:50:52;102330;;;
74485;BMP280;62942;52.462;10.846;2023-02-28T01:52:02;102320;;;
74485;BMP280;62942;52.462;10.846;2023-02-28T01:53:12;102320;;;
74485;BMP280;62942;52.462;10.846;2023-02-28T01:54:12;102320;;;
74485;BMP280;62942;52.462;10.846;2023-02-28T01:55:22;102310;;;
74485;BMP280;62942;52.462;10.846;2023-02-28T01:56:23;102310;;;
74485;BMP280;62942;52.462;10.846;2023-02-28T01:57:22;102310;;;
74485;BMP280;62942;52.462;10.846;2023-02-28T01:58:22;102320;;;
74485;BMP280;62942;52.462;10.846;2023-02-28T01:59:23;102320;;;
74485;BMP280;62942;52.462;10.846;2023-02-28T02:00:32;102310;;;
74485;BMP280;62942;52.462;10.846;2023-02-28T02:01:42;102310;;;
74485;BMP280;62942;52.462;10.846;2023-02-28T02:02:42;102310;;;
74485;BMP280;62942;52.462;10.846;2023-02-28T02:03:53;102310;;;
74485;BMP280;62942;52.462;10.846;2023-02-28T02:04:53;102310;;;
74485;BMP280;62942;52.462;10.846;2023-02-28T02:05:52;102310;;;
74485;BMP280;62942;52.462;10.846;2023-02-28T02:07:02;102310;;;
74485;BMP280;62942;52.462;10.846;2023-02-28T02:08:03;102320;;;
74485;BMP280;62942;52.462;10.846;2023-02-28T02:09:02;102310;;;
74485;BMP280;62942;52.462;10.846;2023-02-28T02:10:12;102310;;;
74485;BMP280;62942;52.462;10.846;2023-02-28T02:11:12;102310;;;
74485;BMP280;62942;52.462;10.846;2023-02-28T02:12:14;102310;;;
74485;BMP280;62942;52.462;10.846;2023-02-28T02:13:28;102310;;;
74485;BMP280;62942;52.462;10.846;2023-02-28T02:14:36;102310;;;
74485;BMP280;62942;52.462;10.846;2023-02-28T02:15:33;102310;;;
74485;BMP280;62942;52.462;10.846;2023-02-28T02:16:46;102300;;;
74485;BMP280;62942;52.462;10.846;2023-02-28T02:17:43;102300;;;
74485;BMP280;62942;52.462;10.846;2023-02-28T02:18:43;102300;;;
74485;BMP280;62942;52.462;10.846;2023-02-28T02:20:41;102300;;;
74485;BMP280;62942;52.462;10.846;2023-02-28T02:21:26;102300;;;
74485;BMP280;62942;52.462;10.846;2023-02-28T02:21:58;102300;;;
74485;BMP280;62942;52.462;10.846;2023-02-28T02:23:11;102300;;;
74485;BMP280;62942;52.462;10.846;2023-02-28T02:24:13;102300;;;
74485;BMP280;62942;52.462;10.846;2023-02-28T02:25:15;102300;;;
74485;BMP280;62942;52.462;10.846;2023-02-28T02:26:27;102300;;;
74485;BMP280;62942;52.462;10.846;2023-02-28T02:27:37;102300;;;
74485;BMP280;62942;52.462;10.846;2023-02-28T02:28:40;102300;;;
74485;BMP280;62942;52.462;10.846;2023-02-28T02:30:52;102310;;;
74485;BMP280;62942;52.462;10.846;2023-02-28T02:30:58;102310;;;
74485;BMP280;62942;52.462;10.846;2023-02-28T02:31:55;102300;;;
74485;BMP280;62942;52.462;10.846;2023-02-28T02:33:15;102300;;;
74485;BMP280;62942;52.462;10.846;2023-02-28T02:34:09;102300;;;
74485;BMP280;62942;52.462;10.846;2023-02-28T02:35:05;102300;;;
74485;BMP280;62942;52.462;10.846;2023-02-28T02:36:13;102300;;;
74485;BMP280;62942;52.462;10.846;2023-02-28T02:37:14;102300;;;
74485;BMP280;62942;52.462;10.846;2023-02-28T02:38:25;102300;;;
74485;BMP280;62942;52.462;10.846;2023-02-28T02:39:34;102300;;;
74485;BMP280;62942;52.462;10.846;2023-02-28T02:40:33;102300;;;
74485;BMP280;62942;52.462;10.846;2023-02-28T02:41:45;102300;;;
74485;BMP280;62942;52.462;10.846;2023-02-28T02:42:52;102310;;;
74485;BMP280;62942;52.462;10.846;2023-02-28T02:44:02;102310;;;
74485;BMP280;62942;52.462;10.846;2023-02-28T02:45:12;102310;;;
74485;BMP280;62942;52.462;10.846;2023-02-28T02:46:23;102310;;;
74485;BMP280;62942;52.462;10.846;2023-02-28T02:47:22;102310;;;
74485;BMP280;62942;52.462;10.846;2023-02-28T02:48:24;102310;;;
74485;BMP280;62942;52.462;10.846;2023-02-28T02:49:32;102310;;;
74485;BMP280;62942;52.462;10.846;2023-02-28T02:50:33;102310;;;
74485;BMP280;62942;52.462;10.846;2023-02-28T02:51:42;102310;;;
74485;BMP280;62942;52.462;10.846;2023-02-28T02:52:53;102310;;;
74485;BMP280;62942;52.462;10.846;2023-02-28T02:54:03;102320;;;
74485;BMP280;62942;52.462;10.846;2023-02-28T02:55:14;102320;;;
74485;BMP280;62942;52.462;10.846;2023-02-28T02:56:12;102320;;;
74485;BMP280;62942;52.462;10.846;2023-02-28T02:57:23;102320;;;
74485;BMP280;62942;52.462;10.846;2023-02-28T02:58:23;102320;;;
74485;BMP280;62942;52.462;10.846;2023-02-28T02:59:32;102320;;;
74485;BMP280;62942;52.462;10.846;2023-02-28T03:00:42;102320;;;
74485;BMP280;62942;52.462;10.846;2023-02-28T03:01:42;102320;;;
74485;BMP280;62942;52.462;10.846;2023-02-28T03:02:42;102320;;;
74485;BMP280;62942;52.462;10.846;2023-02-28T03:03:52;102320;;;
74485;BMP280;62942;52.462;10.846;2023-02-28T03:04:52;102310;;;
74485;BMP280;62942;52.462;10.846;2023-02-28T03:06:02;102310;;;
74485;BMP280;62942;52.462;10.846;2023-02-28T03:07:02;102310;;;
74485;BMP280;62942;52.462;10.846;2023-02-28T03:08:12;102310;;;
74485;BMP280;62942;52.462;10.846;2023-02-28T03:09:12;102320;;;
74485;BMP280;62942;52.462;10.846;2023-02-28T03:10:26;102310;;;
74485;BMP280;62942;52.462;10.846;2023-02-28T03:11:32;102320;;;
74485;BMP280;62942;52.462;10.846;2023-02-28T03:12:32;102320;;;
74485;BMP280;62942;52.462;10.846;2023-02-28T03:14:07;102320;;;
74485;BMP280;62942;52.462;10.846;2023-02-28T03:14:34;102320;;;
74485;BMP280;62942;52.462;10.846;2023-02-28T03:15:32;102320;;;
74485;BMP280;62942;52.462;10.846;2023-02-28T03:16:33;102320;;;
74485;BMP280;62942;52.462;10.846;2023-02-28T03:17:46;102320;;;
74485;BMP280;62942;52.462;10.846;2023-02-28T03:18:43;102320;;;
74485;BMP280;62942;52.462;10.846;2023-02-28T03:19:45;102320;;;
74485;BMP280;62942;52.462;10.846;2023-02-28T03:20:44;102320;;;
74485;BMP280;62942;52.462;10.846;2023-02-28T03:21:55;102320;;;
74485;BMP280;62942;52.462;10.846;2023-02-28T03:22:52;102320;;;
74485;BMP280;62942;52.462;10.846;2023-02-28T03:23:53;102320;;;
74485;BMP280;62942;52.462;10.846;2023-02-28T03:25:03;102320;;;
74485;BMP280;62942;52.462;10.846;2023-02-28T03:26:13;102320;;;
74485;BMP280;62942;52.462;10.846;2023-02-28T03:27:14;102320;;;
74485;BMP280;62942;52.462;10.846;2023-02-28T03:28:13;102320;;;
74485;BMP280;62942;52.462;10.846;2023-02-28T03:29:13;102320;;;
74485;BMP280;62942;52.462;10.846;2023-02-28T03:30:23;102320;;;
74485;BMP280;62942;52.462;10.846;2023-02-28T03:31:32;102320;;;
74485;BMP280;62942;52.462;10.846;2023-02-28T03:32:33;102320;;;
74485;BMP280;62942;52.462;10.846;2023-02-28T03:33:43;102320;;;
74485;BMP280;62942;52.462;10.846;2023-02-28T03:34:42;102310;;;
74485;BMP280;62942;52.462;10.846;2023-02-28T03:35:42;102300;;;
74485;BMP280;62942;52.462;10.846;2023-02-28T03:36:52;102300;;;
74485;BMP280;62942;52.462;10.846;2023-02-28T03:37:53;102320;;;
74485;BMP280;62942;52.462;10.846;2023-02-28T03:38:53;102320;;;
74485;BMP280;62942;52.462;10.846;2023-02-28T03:39:53;102320;;;
74485;BMP280;62942;52.462;10.846;2023-02-28T03:40:55;102320;;;
74485;BMP280;62942;52.462;10.846;2023-02-28T03:41:52;102320;;;
74485;BMP280;62942;52.462;10.846;2023-02-28T03:42:54;102320;;;
74485;BMP280;62942;52.462;10.846;2023-02-28T03:44:03;102320;;;
74485;BMP280;62942;52.462;10.846;2023-02-28T03:45:13;102320;;;
74485;BMP280;62942;52.462;10.846;2023-02-28T03:46:22;102310;;;
74485;BMP280;62942;52.462;10.846;2023-02-28T03:47:23;102310;;;
74485;BMP280;62942;52.462;10.846;2023-02-28T03:48:22;102310;;;
74485;BMP280;62942;52.462;10.846;2023-02-28T03:49:32;102310;;;
74485;BMP280;62942;52.462;10.846;2023-02-28T03:50:42;102310;;;
74485;BMP280;62942;52.462;10.846;2023-02-28T03:51:52;102310;;;
74485;BMP280;62942;52.462;10.846;2023-02-28T03:52:53;102310;;;
74485;BMP280;62942;52.462;10.846;2023-02-28T03:53:52;102300;;;
74485;BMP280;62942;52.462;10.846;2023-02-28T03:54:52;102300;;;
74485;BMP280;62942;52.462;10.846;2023-02-28T03:55:52;102310;;;
74485;BMP280;62942;52.462;10.846;2023-02-28T03:56:53;102310;;;
74485;BMP280;62942;52.462;10.846;2023-02-28T03:58:04;102320;;;
74485;BMP280;62942;52.462;10.846;2023-02-28T03:59:02;102320;;;
74485;BMP280;62942;52.462;10.846;2023-02-28T04:00:12;102320;;;
74485;BMP280;62942;52.462;10.846;2023-02-28T04:01:12;102320;;;
74485;BMP280;62942;52.462;10.846;2023-02-28T04:02:21;102320;;;
74485;BMP280;62942;52.462;10.846;2023-02-28T04:03:22;102320;;;
74485;BMP280;62942;52.462;10.846;2023-02-28T04:04:32;102310;;;
74485;BMP280;62942;52.462;10.846;2023-02-28T04:05:32;102320;;;
74485;BMP280;62942;52.462;10.846;2023-02-28T04:06:42;102310;;;
74485;BMP280;62942;52.462;10.846;2023-02-28T04:07:42;102310;;;
74485;BMP280;62942;52.462;10.846;2023-02-28T04:08:52;102310;;;
74485;BMP280;62942;52.462;10.846;2023-02-28T04:10:02;102320;;;
74485;BMP280;62942;52.462;10.846;2023-02-28T04:11:03;102320;;;
74485;BMP280;62942;52.462;10.846;2023-02-28T04:12:02;102320;;;
74485;BMP280;62942;52.462;10.846;2023-02-28T04:13:11;102310;;;
74485;BMP280;62942;52.462;10.846;2023-02-28T04:14:12;102320;;;
74485;BMP280;62942;52.462;10.846;2023-02-28T04:15:21;102310;;;
74485;BMP280;62942;52.462;10.846;2023-02-28T04:16:22;102300;;;
74485;BMP280;62942;52.462;10.846;2023-02-28T04:17:32;102290;;;
74485;BMP280;62942;52.462;10.846;2023-02-28T04:18:42;102290;;;
74485;BMP280;62942;52.462;10.846;2023-02-28T04:19:52;102310;;;
74485;BMP280;62942;52.462;10.846;2023-02-28T04:21:01;102320;;;
74485;BMP280;62942;52.462;10.846;2023-02-28T04:22:11;102320;;;
74485;BMP280;62942;52.462;10.846;2023-02-28T04:23:11;102330;;;
74485;BMP280;62942;52.462;10.846;2023-02-28T04:24:22;102330;;;
74485;BMP280;62942;52.462;10.846;2023-02-28T04:25:31;102330;;;
74485;BMP280;62942;52.462;10.846;2023-02-28T04:26:42;102330;;;
74485;BMP280;62942;52.462;10.846;2023-02-28T04:27:51;102330;;;
74485;BMP280;62942;52.462;10.846;2023-02-28T04:28:51;102330;;;
74485;BMP280;62942;52.462;10.846;2023-02-28T04:30:02;102330;;;
74485;BMP280;62942;52.462;10.846;2023-02-28T04:31:02;102330;;;
74485;BMP280;62942;52.462;10.846;2023-02-28T04:32:02;102330;;;
74485;BMP280;62942;52.462;10.846;2023-02-28T04:33:02;102330;;;
74485;BMP280;62942;52.462;10.846;2023-02-28T04:34:11;102330;;;
74485;BMP280;62942;52.462;10.846;2023-02-28T04:35:21;102330;;;
74485;BMP280;62942;52.462;10.846;2023-02-28T04:36:31;102330;;;
74485;BMP280;62942;52.462;10.846;2023-02-28T04:37:41;102330;;;
74485;BMP280;62942;52.462;10.846;2023-02-28T04:38:51;102330;;;
74485;BMP280;62942;52.462;10.846;2023-02-28T04:39:51;102330;;;
74485;BMP280;62942;52.462;10.846;2023-02-28T04:41:02;102340;;;
74485;BMP280;62942;52.462;10.846;2023-02-28T04:42:02;102330;;;
74485;BMP280;62942;52.462;10.846;2023-02-28T04:43:01;102340;;;
74485;BMP280;62942;52.462;10.846;2023-02-28T04:44:12;102340;;;
74485;BMP280;62942;52.462;10.846;2023-02-28T04:45:21;102340;;;
74485;BMP280;62942;52.462;10.846;2023-02-28T04:46:31;102340;;;
74485;BMP280;62942;52.462;10.846;2023-02-28T04:47:41;102340;;;
74485;BMP280;62942;52.462;10.846;2023-02-28T04:48:51;102340;;;
74485;BMP280;62942;52.462;10.846;2023-02-28T04:49:51;102330;;;
74485;BMP280;62942;52.462;10.846;2023-02-28T04:50:52;102330;;;
74485;BMP280;62942;52.462;10.846;2023-02-28T04:52:02;102330;;;
74485;BMP280;62942;52.462;10.846;2023-02-28T04:53:11;102340;;;
74485;BMP280;62942;52.462;10.846;2023-02-28T04:54:21;102330;;;
74485;BMP280;62942;52.462;10.846;2023-02-28T04:55:22;102330;;;
74485;BMP280;62942;52.462;10.846;2023-02-28T04:56:31;102330;;;
74485;BMP280;62942;52.462;10.846;2023-02-28T04:57:41;102330;;;
74485;BMP280;62942;52.462;10.846;2023-02-28T04:58:51;102330;;;
74485;BMP280;62942;52.462;10.846;2023-02-28T05:00:02;102330;;;
74485;BMP280;62942;52.462;10.846;2023-02-28T05:01:16;102330;;;
74485;BMP280;62942;52.462;10.846;2023-02-28T05:02:21;102330;;;
74485;BMP280;62942;52.462;10.846;2023-02-28T05:03:31;102340;;;
74485;BMP280;62942;52.462;10.846;2023-02-28T05:04:32;102330;;;
74485;BMP280;62942;52.462;10.846;2023-02-28T05:05:42;102330;;;
74485;BMP280;62942;52.462;10.846;2023-02-28T05:06:41;102330;;;
74485;BMP280;62942;52.462;10.846;2023-02-28T05:07:51;102330;;;
74485;BMP280;62942;52.462;10.846;2023-02-28T05:08:52;102330;;;
74485;BMP280;62942;52.462;10.846;2023-02-28T05:09:51;102330;;;
74485;BMP280;62942;52.462;10.846;2023-02-28T05:10:51;102330;;;
74485;BMP280;62942;52.462;10.846;2023-02-28T05:12:02;102320;;;
74485;BMP280;62942;52.462;10.846;2023-02-28T05:13:11;102320;;;
74485;BMP280;62942;52.462;10.846;2023-02-28T05:14:12;102330;;;
74485;BMP280;62942;52.462;10.846;2023-02-28T05:15:21;102330;;;
74485;BMP280;62942;52.462;10.846;2023-02-28T05:16:21;102320;;;
74485;BMP280;62942;52.462;10.846;2023-02-28T05:17:31;102330;;;
74485;BMP280;62942;52.462;10.846;2023-02-28T05:18:41;102330;;;
74485;BMP280;62942;52.462;10.846;2023-02-28T05:19:41;102330;;;
74485;BMP280;62942;52.462;10.846;2023-02-28T05:20:41;102340;;;
74485;BMP280;62942;52.462;10.846;2023-02-28T05:21:47;102330;;;
74485;BMP280;62942;52.462;10.846;2023-02-28T05:22:51;102330;;;
74485;BMP280;62942;52.462;10.846;2023-02-28T05:24:02;102330;;;
74485;BMP280;62942;52.462;10.846;2023-02-28T05:25:02;102330;;;
74485;BMP280;62942;52.462;10.846;2023-02-28T05:26:11;102330;;;
74485;BMP280;62942;52.462;10.846;2023-02-28T05:27:21;102330;;;
74485;BMP280;62942;52.462;10.846;2023-02-28T05:28:31;102330;;;
74485;BMP280;62942;52.462;10.846;2023-02-28T05:29:41;102320;;;
74485;BMP280;62942;52.462;10.846;2023-02-28T05:30:51;102330;;;
74485;BMP280;62942;52.462;10.846;2023-02-28T05:31:51;102330;;;
74485;BMP280;62942;52.462;10.846;2023-02-28T05:33:01;102330;;;
74485;BMP280;62942;52.462;10.846;2023-02-28T05:34:01;102330;;;
74485;BMP280;62942;52.462;10.846;2023-02-28T05:35:11;102330;;;
74485;BMP280;62942;52.462;10.846;2023-02-28T05:36:21;102330;;;
74485;BMP280;62942;52.462;10.846;2023-02-28T05:37:31;102330;;;
74485;BMP280;62942;52.462;10.846;2023-02-28T05:38:31;102330;;;
74485;BMP280;62942;52.462;10.846;2023-02-28T05:39:31;102330;;;
74485;BMP280;62942;52.462;10.846;2023-02-28T05:40:41;102330;;;
74485;BMP280;62942;52.462;10.846;2023-02-28T05:41:51;102330;;;
74485;BMP280;62942;52.462;10.846;2023-02-28T05:43:01;102330;;;
74485;BMP280;62942;52.462;10.846;2023-02-28T05:44:11;102330;;;
74485;BMP280;62942;52.462;10.846;2023-02-28T05:45:21;102340;;;
74485;BMP280;62942;52.462;10.846;2023-02-28T05:46:31;102330;;;
74485;BMP280;62942;52.462;10.846;2023-02-28T05:47:31;102340;;;
74485;BMP280;62942;52.462;10.846;2023-02-28T05:48:42;102340;;;
74485;BMP280;62942;52.462;10.846;2023-02-28T05:49:51;102330;;;
74485;BMP280;62942;52.462;10.846;2023-02-28T05:51:01;102340;;;
74485;BMP280;62942;52.462;10.846;2023-02-28T05:52:01;102340;;;
74485;BMP280;62942;52.462;10.846;2023-02-28T05:53:11;102340;;;
74485;BMP280;62942;52.462;10.846;2023-02-28T05:54:11;102350;;;
74485;BMP280;62942;52.462;10.846;2023-02-28T05:55:11;102340;;;
74485;BMP280;62942;52.462;10.846;2023-02-28T05:56:21;102350;;;
74485;BMP280;62942;52.462;10.846;2023-02-28T05:57:31;102340;;;
74485;BMP280;62942;52.462;10.846;2023-02-28T05:58:41;102350;;;
74485;BMP280;62942;52.462;10.846;2023-02-28T05:59:41;102340;;;
74485;BMP280;62942;52.462;10.846;2023-02-28T06:00:51;102350;;;
74485;BMP280;62942;52.462;10.846;2023-02-28T06:02:01;102350;;;
74485;BMP280;62942;52.462;10.846;2023-02-28T06:03:11;102350;;;
74485;BMP280;62942;52.462;10.846;2023-02-28T06:04:21;102350;;;
74485;BMP280;62942;52.462;10.846;2023-02-28T06:05:31;102350;;;
74485;BMP280;62942;52.462;10.846;2023-02-28T06:06:41;102350;;;
74485;BMP280;62942;52.462;10.846;2023-02-28T06:07:41;102350;;;
74485;BMP280;62942;52.462;10.846;2023-02-28T06:08:51;102350;;;
74485;BMP280;62942;52.462;10.846;2023-02-28T06:10:01;102350;;;
74485;BMP280;62942;52.462;10.846;2023-02-28T06:11:11;102360;;;
74485;BMP280;62942;52.462;10.846;2023-02-28T06:12:21;102360;;;
74485;BMP280;62942;52.462;10.846;2023-02-28T06:13:31;102360;;;
74485;BMP280;62942;52.462;10.846;2023-02-28T06:14:32;102360;;;
74485;BMP280;62942;52.462;10.846;2023-02-28T06:15:41;102360;;;
74485;BMP280;62942;52.462;10.846;2023-02-28T06:16:51;102360;;;
74485;BMP280;62942;52.462;10.846;2023-02-28T06:18:01;102360;;;
74485;BMP280;62942;52.462;10.846;2023-02-28T06:19:02;102370;;;
74485;BMP280;62942;52.462;10.846;2023-02-28T06:20:11;102360;;;
74485;BMP280;62942;52.462;10.846;2023-02-28T06:21:21;102370;;;
74485;BMP280;62942;52.462;10.846;2023-02-28T06:22:21;102370;;;
74485;BMP280;62942;52.462;10.846;2023-02-28T06:23:31;102360;;;
74485;BMP280;62942;52.462;10.846;2023-02-28T06:24:41;102370;;;
74485;BMP280;62942;52.462;10.846;2023-02-28T06:25:44;102370;;;
74485;BMP280;62942;52.462;10.846;2023-02-28T06:26:51;102370;;;
74485;BMP280;62942;52.462;10.846;2023-02-28T06:28:01;102380;;;
74485;BMP280;62942;52.462;10.846;2023-02-28T06:29:01;102370;;;
74485;BMP280;62942;52.462;10.846;2023-02-28T06:30:01;102370;;;
74485;BMP280;62942;52.462;10.846;2023-02-28T06:31:12;102370;;;
74485;BMP280;62942;52.462;10.846;2023-02-28T06:32:21;102370;;;
74485;BMP280;62942;52.462;10.846;2023-02-28T06:33:31;102370;;;
74485;BMP280;62942;52.462;10.846;2023-02-28T06:34:41;102380;;;
74485;BMP280;62942;52.462;10.846;2023-02-28T06:35:43;102380;;;
74485;BMP280;62942;52.462;10.846;2023-02-28T06:36:41;102380;;;
74485;BMP280;62942;52.462;10.846;2023-02-28T06:37:51;102380;;;
74485;BMP280;62942;52.462;10.846;2023-02-28T06:39:01;102380;;;
74485;BMP280;62942;52.462;10.846;2023-02-28T06:40:11;102380;;;
74485;BMP280;62942;52.462;10.846;2023-02-28T06:41:11;102380;;;
74485;BMP280;62942;52.462;10.846;2023-02-28T06:42:21;102380;;;
74485;BMP280;62942;52.462;10.846;2023-02-28T06:43:22;102380;;;
74485;BMP280;62942;52.462;10.846;2023-02-28T06:44:31;102380;;;
74485;BMP280;62942;52.462;10.846;2023-02-28T06:45:42;102380;;;
74485;BMP280;62942;52.462;10.846;2023-02-28T06:46:51;102380;;;
74485;BMP280;62942;52.462;10.846;2023-02-28T06:47:51;102380;;;
74485;BMP280;62942;52.462;10.846;2023-02-28T06:49:02;102380;;;
74485;BMP280;62942;52.462;10.846;2023-02-28T06:50:11;102380;;;
74485;BMP280;62942;52.462;10.846;2023-02-28T06:51:12;102380;;;
74485;BMP280;62942;52.462;10.846;2023-02-28T06:52:11;102390;;;
74485;BMP280;62942;52.462;10.846;2023-02-28T06:53:21;102380;;;
74485;BMP280;62942;52.462;10.846;2023-02-28T06:54:21;102390;;;
74485;BMP280;62942;52.462;10.846;2023-02-28T06:55:21;102390;;;